Amagi Galaxy — V7VE9 — position and weather

sailwx.info

Track history (hours):
 
Tides and Currents Weather Stations Pressure Air Temp Water Temp Dewpoint Dewpoint Depression Visibility Wind Speed Wind Dir Waves Ship Positions

Amagi Galaxy

Last reported at 2014-Jul-28 03:17 UTC. Time now 2014-Jul-28 04:16 UTC.
Position N 31°56' E 120°06'.

Length 152 m; draft 7.3 m.

Type: Ship (hazmat cat B). MMSI: 538004105.

Date/timePositionNaut miles runAvg speedWind from/ knotsBaromVisibWave heightAir tempDewpointWater temp
2014-Jul-28 03:17N 31°56' E 120°06'0 0.0
2014-Jul-28 01:14N 31°56' E 120°06'0 0.0
2014-Jul-28 00:32N 31°56' E 120°06'0 0.0
2014-Jul-27 23:32N 31°56' E 120°06'0 0.0
2014-Jul-27 22:29N 31°56' E 120°06'0 0.0
2014-Jul-27 21:32N 31°56' E 120°06'0 0.0
2014-Jul-27 20:32N 31°56' E 120°06'0 0.0
2014-Jul-27 19:32N 31°56' E 120°06'0 0.0
2014-Jul-27 18:32N 31°56' E 120°06'0 0.0
2014-Jul-27 17:32N 31°56' E 120°06'0 0.0
2014-Jul-27 16:32N 31°56' E 120°06'0 0.0
2014-Jul-27 15:32N 31°56' E 120°06'0 0.0
2014-Jul-27 14:32N 31°56' E 120°06'0 0.0
2014-Jul-27 13:32N 31°56' E 120°06'0 0.0
2014-Jul-27 12:32N 31°56' E 120°06'0 0.0
2014-Jul-27 11:29N 31°56' E 120°06'0 0.0
2014-Jul-27 10:29N 31°56' E 120°06'0 0.0
2014-Jul-27 09:26N 31°56' E 120°06'0 0.0
2014-Jul-27 08:32N 31°56' E 120°06'0 0.0
2014-Jul-27 07:32N 31°56' E 120°06'0 0.0
2014-Jul-27 06:32N 31°56' E 120°06'0 0.0
2014-Jul-27 05:29N 31°56' E 120°06'0 0.0
2014-Jul-27 04:32N 31°56' E 120°06'0 0.0
2014-Jul-27 03:32N 31°56' E 120°06'0 0.0
2014-Jul-27 02:32N 31°56' E 120°06'0 0.0
2014-Jul-27 01:32N 31°56' E 120°06'0 0.0
2014-Jul-27 00:32N 31°56' E 120°06'0 0.0
2014-Jul-26 23:23N 31°56' E 120°06'0 0.0
2014-Jul-26 22:32N 31°56' E 120°06'0 0.0
2014-Jul-26 21:32N 31°56' E 120°06'0 0.0
2014-Jul-26 20:32N 31°56' E 120°06'0 0.0
2014-Jul-26 19:29N 31°56' E 120°06'0 0.0
2014-Jul-26 18:32N 31°56' E 120°06'0 0.0
2014-Jul-26 17:23N 31°56' E 120°06'0 0.0
2014-Jul-26 16:26N 31°56' E 120°06'0 0.0
2014-Jul-26 15:32N 31°56' E 120°06'0 0.0
2014-Jul-26 14:32N 31°56' E 120°06'0 0.0
2014-Jul-26 13:32N 31°56' E 120°06'0 0.0
2014-Jul-26 12:32N 31°56' E 120°06'0 0.0
2014-Jul-26 11:32N 31°56' E 120°06'0 0.0
2014-Jul-26 10:32N 31°56' E 120°06'0 0.0
2014-Jul-26 09:32N 31°56' E 120°06'0 0.0
2014-Jul-26 08:32N 31°56' E 120°06'5 4.8
2014-Jul-26 07:33N 31°56' E 120°12'9 9.1
2014-Jul-26 06:33N 31°58' E 120°22'6 6.5
2014-Jul-26 05:34N 32°02' E 120°28'9 9.5
2014-Jul-26 04:33N 31°60' E 120°39'8 8.2
2014-Jul-26 03:34N 32°00' E 120°48'8 8.4
2014-Jul-26 02:33N 31°53' E 120°53'7 7.4
2014-Jul-26 01:33N 31°47' E 120°58'9 8.4
2014-Jul-26 00:32N 31°43' E 121°07'9 8.8
2014-Jul-25 23:29N 31°38' E 121°16'5 4.8
2014-Jul-25 22:29N 31°34' E 121°20'0 0.0
2014-Jul-25 20:09N 31°35' E 121°20'0 0.1
2014-Jul-25 18:33N 31°35' E 121°20'0 0.0
2014-Jul-25 17:27N 31°35' E 121°20'0 0.0
2014-Jul-25 15:21N 31°35' E 121°20'0 0.2
2014-Jul-25 14:33N 31°35' E 121°20'0 0.1
2014-Jul-25 12:22N 31°34' E 121°20'0 0.0
2014-Jul-25 07:10N 31°34' E 121°20'0 0.0
2014-Jul-25 05:22N 31°34' E 121°20'0 0.1
2014-Jul-25 04:22N 31°35' E 121°20'0 0.0
2014-Jul-25 03:28N 31°35' E 121°20'0 0.1
2014-Jul-25 02:28N 31°34' E 121°20'0 0.1
2014-Jul-25 01:28N 31°34' E 121°20'0 0.1
2014-Jul-25 00:21N 31°35' E 121°20'0 0.2
2014-Jul-24 23:32N 31°34' E 121°20'0 0.0
2014-Jul-24 22:14N 31°34' E 121°20'0 0.0
2014-Jul-24 21:20N 31°34' E 121°20'0 0.0
2014-Jul-24 20:32N 31°34' E 121°20'0 0.0
2014-Jul-24 18:14N 31°34' E 121°20'0 0.2
2014-Jul-24 17:26N 31°35' E 121°20'0 0.0
2014-Jul-24 16:20N 31°35' E 121°20'0 0.0
2014-Jul-24 12:26N 31°34' E 121°20'0 0.1
2014-Jul-24 11:26N 31°35' E 121°20'0 0.0
2014-Jul-24 10:26N 31°35' E 121°20'0 0.1
2014-Jul-24 08:33N 31°34' E 121°20'7 6.8
2014-Jul-24 07:33N 31°30' E 121°26'7 6.6
2014-Jul-24 06:33N 31°25' E 121°31'8 8.4
2014-Jul-24 05:33N 31°21' E 121°40'10 9.7
2014-Jul-24 04:32N 31°17' E 121°50'3110.4
2014-Jul-24 01:31N 31°06' E 122°25'  
Track history (hours):
 
Tides and Currents Weather Stations Pressure Air Temp Water Temp Dewpoint Dewpoint Depression Visibility Wind Speed Wind Dir Waves Ship Positions

Amagi Galaxy

Last reported at 2014-Jul-28 03:17 UTC. Time now 2014-Jul-28 04:16 UTC.
Position N 31°56' E 120°06'.

Length 152 m; draft 7.3 m.

Type: Ship (hazmat cat B). MMSI: 538004105.

Date/timePositionNaut miles runAvg speedWind from/ knotsBaromVisibWave heightAir tempDewpointWater temp
2014-Jul-28 03:17N 31°56' E 120°06'0 0.0
2014-Jul-28 01:14N 31°56' E 120°06'0 0.0
2014-Jul-28 00:32N 31°56' E 120°06'0 0.0
2014-Jul-27 23:32N 31°56' E 120°06'0 0.0
2014-Jul-27 22:29N 31°56' E 120°06'0 0.0
2014-Jul-27 21:32N 31°56' E 120°06'0 0.0
2014-Jul-27 20:32N 31°56' E 120°06'0 0.0
2014-Jul-27 19:32N 31°56' E 120°06'0 0.0
2014-Jul-27 18:32N 31°56' E 120°06'0 0.0
2014-Jul-27 17:32N 31°56' E 120°06'0 0.0
2014-Jul-27 16:32N 31°56' E 120°06'0 0.0
2014-Jul-27 15:32N 31°56' E 120°06'0 0.0
2014-Jul-27 14:32N 31°56' E 120°06'0 0.0
2014-Jul-27 13:32N 31°56' E 120°06'0 0.0
2014-Jul-27 12:32N 31°56' E 120°06'0 0.0
2014-Jul-27 11:29N 31°56' E 120°06'0 0.0
2014-Jul-27 10:29N 31°56' E 120°06'0 0.0
2014-Jul-27 09:26N 31°56' E 120°06'0 0.0
2014-Jul-27 08:32N 31°56' E 120°06'0 0.0
2014-Jul-27 07:32N 31°56' E 120°06'0 0.0
2014-Jul-27 06:32N 31°56' E 120°06'0 0.0
2014-Jul-27 05:29N 31°56' E 120°06'0 0.0
2014-Jul-27 04:32N 31°56' E 120°06'0 0.0
2014-Jul-27 03:32N 31°56' E 120°06'0 0.0
2014-Jul-27 02:32N 31°56' E 120°06'0 0.0
2014-Jul-27 01:32N 31°56' E 120°06'0 0.0
2014-Jul-27 00:32N 31°56' E 120°06'0 0.0
2014-Jul-26 23:23N 31°56' E 120°06'0 0.0
2014-Jul-26 22:32N 31°56' E 120°06'0 0.0
2014-Jul-26 21:32N 31°56' E 120°06'0 0.0
2014-Jul-26 20:32N 31°56' E 120°06'0 0.0
2014-Jul-26 19:29N 31°56' E 120°06'0 0.0
2014-Jul-26 18:32N 31°56' E 120°06'0 0.0
2014-Jul-26 17:23N 31°56' E 120°06'0 0.0
2014-Jul-26 16:26N 31°56' E 120°06'0 0.0
2014-Jul-26 15:32N 31°56' E 120°06'0 0.0
2014-Jul-26 14:32N 31°56' E 120°06'0 0.0
2014-Jul-26 13:32N 31°56' E 120°06'0 0.0
2014-Jul-26 12:32N 31°56' E 120°06'0 0.0
2014-Jul-26 11:32N 31°56' E 120°06'0 0.0
2014-Jul-26 10:32N 31°56' E 120°06'0 0.0
2014-Jul-26 09:32N 31°56' E 120°06'0 0.0
2014-Jul-26 08:32N 31°56' E 120°06'5 4.8
2014-Jul-26 07:33N 31°56' E 120°12'9 9.1
2014-Jul-26 06:33N 31°58' E 120°22'6 6.5
2014-Jul-26 05:34N 32°02' E 120°28'9 9.5
2014-Jul-26 04:33N 31°60' E 120°39'8 8.2
2014-Jul-26 03:34N 32°00' E 120°48'8 8.4
2014-Jul-26 02:33N 31°53' E 120°53'7 7.4
2014-Jul-26 01:33N 31°47' E 120°58'9 8.4
2014-Jul-26 00:32N 31°43' E 121°07'9 8.8
2014-Jul-25 23:29N 31°38' E 121°16'5 4.8
2014-Jul-25 22:29N 31°34' E 121°20'0 0.0
2014-Jul-25 20:09N 31°35' E 121°20'0 0.1
2014-Jul-25 18:33N 31°35' E 121°20'0 0.0
2014-Jul-25 17:27N 31°35' E 121°20'0 0.0
2014-Jul-25 15:21N 31°35' E 121°20'0 0.2
2014-Jul-25 14:33N 31°35' E 121°20'0 0.1
2014-Jul-25 12:22N 31°34' E 121°20'0 0.0
2014-Jul-25 07:10N 31°34' E 121°20'0 0.0
2014-Jul-25 05:22N 31°34' E 121°20'0 0.1
2014-Jul-25 04:22N 31°35' E 121°20'0 0.0
2014-Jul-25 03:28N 31°35' E 121°20'0 0.1
2014-Jul-25 02:28N 31°34' E 121°20'0 0.1
2014-Jul-25 01:28N 31°34' E 121°20'0 0.1
2014-Jul-25 00:21N 31°35' E 121°20'0 0.2
2014-Jul-24 23:32N 31°34' E 121°20'0 0.0
2014-Jul-24 22:14N 31°34' E 121°20'0 0.0
2014-Jul-24 21:20N 31°34' E 121°20'0 0.0
2014-Jul-24 20:32N 31°34' E 121°20'0 0.0
2014-Jul-24 18:14N 31°34' E 121°20'0 0.2
2014-Jul-24 17:26N 31°35' E 121°20'0 0.0
2014-Jul-24 16:20N 31°35' E 121°20'0 0.0
2014-Jul-24 12:26N 31°34' E 121°20'0 0.1
2014-Jul-24 11:26N 31°35' E 121°20'0 0.0
2014-Jul-24 10:26N 31°35' E 121°20'0 0.1
2014-Jul-24 08:33N 31°34' E 121°20'7 6.8
2014-Jul-24 07:33N 31°30' E 121°26'7 6.6
2014-Jul-24 06:33N 31°25' E 121°31'8 8.4
2014-Jul-24 05:33N 31°21' E 121°40'10 9.7
2014-Jul-24 04:32N 31°17' E 121°50'3110.4
2014-Jul-24 01:31N 31°06' E 122°25'  

Dump ship's entire track history